sensor_id;sensor_type;location;lat;lon;timestamp;temperature;humidity
65707;SHT31;52423;43.512;5.220;2022-10-22T00:01:46;21.83;80.34
65707;SHT31;52423;43.512;5.220;2022-10-22T00:04:12;21.74;80.48
65707;SHT31;52423;43.512;5.220;2022-10-22T00:06:37;21.72;80.64
65707;SHT31;52423;43.512;5.220;2022-10-22T00:09:02;21.76;80.57
65707;SHT31;52423;43.512;5.220;2022-10-22T00:11:28;21.74;80.68
65707;SHT31;52423;43.512;5.220;2022-10-22T00:13:53;21.66;81.07
65707;SHT31;52423;43.512;5.220;2022-10-22T00:16:19;21.63;81.09
65707;SHT31;52423;43.512;5.220;2022-10-22T00:18:44;21.64;80.87
65707;SHT31;52423;43.512;5.220;2022-10-22T00:21:10;21.56;81.10
65707;SHT31;52423;43.512;5.220;2022-10-22T00:23:39;21.59;80.95
65707;SHT31;52423;43.512;5.220;2022-10-22T00:26:04;21.49;81.54
65707;SHT31;52423;43.512;5.220;2022-10-22T00:28:30;21.47;81.80
65707;SHT31;52423;43.512;5.220;2022-10-22T00:30:57;21.43;82.13
65707;SHT31;52423;43.512;5.220;2022-10-22T00:33:23;21.46;82.14
65707;SHT31;52423;43.512;5.220;2022-10-22T00:35:48;21.47;82.16
65707;SHT31;52423;43.512;5.220;2022-10-22T00:38:14;21.42;82.20
65707;SHT31;52423;43.512;5.220;2022-10-22T00:40:39;21.41;82.19
65707;SHT31;52423;43.512;5.220;2022-10-22T00:43:05;21.39;82.28
65707;SHT31;52423;43.512;5.220;2022-10-22T00:45:30;21.38;82.52
65707;SHT31;52423;43.512;5.220;2022-10-22T00:48:00;21.45;82.19
65707;SHT31;52423;43.512;5.220;2022-10-22T00:50:36;21.35;82.35
65707;SHT31;52423;43.512;5.220;2022-10-22T00:53:03;21.39;81.98
65707;SHT31;52423;43.512;5.220;2022-10-22T00:55:31;21.38;81.89
65707;SHT31;52423;43.512;5.220;2022-10-22T00:57:57;21.33;81.91
65707;SHT31;52423;43.512;5.220;2022-10-22T01:00:24;21.26;82.05
65707;SHT31;52423;43.512;5.220;2022-10-22T01:02:50;21.29;82.01
65707;SHT31;52423;43.512;5.220;2022-10-22T01:05:17;21.35;81.51
65707;SHT31;52423;43.512;5.220;2022-10-22T01:07:50;21.29;81.29
65707;SHT31;52423;43.512;5.220;2022-10-22T01:10:23;21.33;81.10
65707;SHT31;52423;43.512;5.220;2022-10-22T01:12:57;21.32;81.29
65707;SHT31;52423;43.512;5.220;2022-10-22T01:31:09;21.09;82.12
65707;SHT31;52423;43.512;5.220;2022-10-22T01:33:38;21.06;82.24
65707;SHT31;52423;43.512;5.220;2022-10-22T01:36:04;21.06;82.24
65707;SHT31;52423;43.512;5.220;2022-10-22T01:38:30;21.06;82.26
65707;SHT31;52423;43.512;5.220;2022-10-22T01:40:56;21.04;82.33
65707;SHT31;52423;43.512;5.220;2022-10-22T01:43:22;21.05;82.57
65707;SHT31;52423;43.512;5.220;2022-10-22T01:45:50;21.02;82.70
65707;SHT31;52423;43.512;5.220;2022-10-22T01:48:28;21.02;82.75
65707;SHT31;52423;43.512;5.220;2022-10-22T02:02:22;21.05;82.81
65707;SHT31;52423;43.512;5.220;2022-10-22T02:04:49;21.02;82.98
65707;SHT31;52423;43.512;5.220;2022-10-22T02:07:20;21.06;82.99
65707;SHT31;52423;43.512;5.220;2022-10-22T02:09:48;21.01;83.37
65707;SHT31;52423;43.512;5.220;2022-10-22T02:12:16;20.98;83.89
65707;SHT31;52423;43.512;5.220;2022-10-22T02:14:43;20.95;84.32
65707;SHT31;52423;43.512;5.220;2022-10-22T02:17:13;20.90;85.02
65707;SHT31;52423;43.512;5.220;2022-10-22T02:19:53;20.84;85.19
65707;SHT31;52423;43.512;5.220;2022-10-22T02:22:20;20.87;85.08
65707;SHT31;52423;43.512;5.220;2022-10-22T02:24:47;20.84;85.05
65707;SHT31;52423;43.512;5.220;2022-10-22T02:29:55;20.75;85.26
65707;SHT31;52423;43.512;5.220;2022-10-22T02:32:27;20.77;85.25
65707;SHT31;52423;43.512;5.220;2022-10-22T02:34:54;20.77;85.27
65707;SHT31;52423;43.512;5.220;2022-10-22T02:37:21;20.83;85.04
65707;SHT31;52423;43.512;5.220;2022-10-22T02:39:47;20.80;85.50
65707;SHT31;52423;43.512;5.220;2022-10-22T02:42:13;20.68;85.76
65707;SHT31;52423;43.512;5.220;2022-10-22T02:44:38;20.70;85.92
65707;SHT31;52423;43.512;5.220;2022-10-22T02:47:04;20.70;85.81
65707;SHT31;52423;43.512;5.220;2022-10-22T02:49:29;20.68;85.67
65707;SHT31;52423;43.512;5.220;2022-10-22T02:51:55;20.71;85.60
65707;SHT31;52423;43.512;5.220;2022-10-22T02:54:20;20.73;85.38
65707;SHT31;52423;43.512;5.220;2022-10-22T02:56:46;20.73;85.45
65707;SHT31;52423;43.512;5.220;2022-10-22T02:59:11;20.65;85.73
65707;SHT31;52423;43.512;5.220;2022-10-22T03:01:36;20.61;85.75
65707;SHT31;52423;43.512;5.220;2022-10-22T03:04:02;20.65;85.76
65707;SHT31;52423;43.512;5.220;2022-10-22T03:06:27;20.65;85.66
65707;SHT31;52423;43.512;5.220;2022-10-22T03:08:53;20.58;85.51
65707;SHT31;52423;43.512;5.220;2022-10-22T03:11:18;20.57;86.04
65707;SHT31;52423;43.512;5.220;2022-10-22T03:13:43;20.50;85.94
65707;SHT31;52423;43.512;5.220;2022-10-22T03:16:09;20.44;85.91
65707;SHT31;52423;43.512;5.220;2022-10-22T03:18:34;20.44;86.05
65707;SHT31;52423;43.512;5.220;2022-10-22T03:21:05;20.48;86.01
65707;SHT31;52423;43.512;5.220;2022-10-22T03:23:32;20.53;85.54
65707;SHT31;52423;43.512;5.220;2022-10-22T03:25:58;20.54;85.72
65707;SHT31;52423;43.512;5.220;2022-10-22T03:28:23;20.57;85.64
65707;SHT31;52423;43.512;5.220;2022-10-22T03:30:51;20.53;85.52
65707;SHT31;52423;43.512;5.220;2022-10-22T03:33:16;20.58;85.38
65707;SHT31;52423;43.512;5.220;2022-10-22T03:35:43;20.55;85.82
65707;SHT31;52423;43.512;5.220;2022-10-22T03:38:11;20.57;85.94
65707;SHT31;52423;43.512;5.220;2022-10-22T03:40:37;20.60;85.90
65707;SHT31;52423;43.512;5.220;2022-10-22T03:43:03;20.61;85.73
65707;SHT31;52423;43.512;5.220;2022-10-22T03:45:28;20.65;85.58
65707;SHT31;52423;43.512;5.220;2022-10-22T03:47:53;20.65;85.49
65707;SHT31;52423;43.512;5.220;2022-10-22T03:50:19;20.63;85.42
65707;SHT31;52423;43.512;5.220;2022-10-22T03:52:44;20.65;85.34
65707;SHT31;52423;43.512;5.220;2022-10-22T03:55:09;20.64;85.29
65707;SHT31;52423;43.512;5.220;2022-10-22T03:57:35;20.65;85.52
65707;SHT31;52423;43.512;5.220;2022-10-22T04:00:02;20.63;85.53
65707;SHT31;52423;43.512;5.220;2022-10-22T04:02:28;20.68;85.20
65707;SHT31;52423;43.512;5.220;2022-10-22T04:04:53;20.74;85.02
65707;SHT31;52423;43.512;5.220;2022-10-22T04:07:18;20.67;85.30
65707;SHT31;52423;43.512;5.220;2022-10-22T04:09:44;20.63;85.48
65707;SHT31;52423;43.512;5.220;2022-10-22T04:12:09;20.63;85.67
65707;SHT31;52423;43.512;5.220;2022-10-22T04:14:34;20.57;86.04
65707;SHT31;52423;43.512;5.220;2022-10-22T04:17:00;20.51;86.02
65707;SHT31;52423;43.512;5.220;2022-10-22T04:19:25;20.58;85.94
65707;SHT31;52423;43.512;5.220;2022-10-22T04:21:51;20.61;86.16
65707;SHT31;52423;43.512;5.220;2022-10-22T04:24:16;20.64;85.94
65707;SHT31;52423;43.512;5.220;2022-10-22T04:26:42;20.67;86.00
65707;SHT31;52423;43.512;5.220;2022-10-22T04:29:07;20.70;85.84
65707;SHT31;52423;43.512;5.220;2022-10-22T04:31:33;20.73;85.69
65707;SHT31;52423;43.512;5.220;2022-10-22T04:33:59;20.80;85.34
65707;SHT31;52423;43.512;5.220;2022-10-22T04:36:26;20.78;85.27
65707;SHT31;52423;43.512;5.220;2022-10-22T04:38:54;20.80;84.93
65707;SHT31;52423;43.512;5.220;2022-10-22T04:41:23;20.77;84.75
65707;SHT31;52423;43.512;5.220;2022-10-22T04:43:49;20.74;84.62
65707;SHT31;52423;43.512;5.220;2022-10-22T04:46:16;20.74;84.45
65707;SHT31;52423;43.512;5.220;2022-10-22T04:48:42;20.74;84.43
65707;SHT31;52423;43.512;5.220;2022-10-22T04:51:11;20.70;84.41
65707;SHT31;52423;43.512;5.220;2022-10-22T04:53:37;20.68;84.69
65707;SHT31;52423;43.512;5.220;2022-10-22T04:56:09;20.58;84.89
65707;SHT31;52423;43.512;5.220;2022-10-22T04:58:35;20.50;85.25
65707;SHT31;52423;43.512;5.220;2022-10-22T05:01:08;20.43;85.70
65707;SHT31;52423;43.512;5.220;2022-10-22T05:03:34;20.41;85.70
65707;SHT31;52423;43.512;5.220;2022-10-22T05:06:00;20.46;85.64
65707;SHT31;52423;43.512;5.220;2022-10-22T05:08:25;20.46;85.81
65707;SHT31;52423;43.512;5.220;2022-10-22T05:10:51;20.47;85.42
65707;SHT31;52423;43.512;5.220;2022-10-22T05:13:16;20.43;86.11
65707;SHT31;52423;43.512;5.220;2022-10-22T05:15:41;20.44;85.84
65707;SHT31;52423;43.512;5.220;2022-10-22T05:18:07;20.48;85.69
65707;SHT31;52423;43.512;5.220;2022-10-22T05:20:32;20.47;85.80
65707;SHT31;52423;43.512;5.220;2022-10-22T05:22:57;20.48;85.73
65707;SHT31;52423;43.512;5.220;2022-10-22T05:25:23;20.43;85.94
65707;SHT31;52423;43.512;5.220;2022-10-22T05:27:48;20.47;85.88
65707;SHT31;52423;43.512;5.220;2022-10-22T05:30:14;20.40;85.84
65707;SHT31;52423;43.512;5.220;2022-10-22T05:32:40;20.47;85.71
65707;SHT31;52423;43.512;5.220;2022-10-22T05:35:05;20.41;85.90
65707;SHT31;52423;43.512;5.220;2022-10-22T05:37:30;20.41;85.94
65707;SHT31;52423;43.512;5.220;2022-10-22T05:39:56;20.46;85.92
65707;SHT31;52423;43.512;5.220;2022-10-22T05:42:21;20.51;85.73
65707;SHT31;52423;43.512;5.220;2022-10-22T05:44:47;20.51;85.63
65707;SHT31;52423;43.512;5.220;2022-10-22T05:47:12;20.51;85.76
65707;SHT31;52423;43.512;5.220;2022-10-22T05:49:37;20.51;85.67
65707;SHT31;52423;43.512;5.220;2022-10-22T05:52:03;20.53;85.66
65707;SHT31;52423;43.512;5.220;2022-10-22T05:54:28;20.48;85.77
65707;SHT31;52423;43.512;5.220;2022-10-22T05:56:54;20.57;85.51
65707;SHT31;52423;43.512;5.220;2022-10-22T05:59:19;20.55;85.32
65707;SHT31;52423;43.512;5.220;2022-10-22T06:01:45;20.53;85.60
65707;SHT31;52423;43.512;5.220;2022-10-22T06:04:11;20.50;85.71
65707;SHT31;52423;43.512;5.220;2022-10-22T06:06:43;20.50;85.87
65707;SHT31;52423;43.512;5.220;2022-10-22T06:11:44;20.47;86.01
65707;SHT31;52423;43.512;5.220;2022-10-22T06:14:11;20.50;85.83
65707;SHT31;52423;43.512;5.220;2022-10-22T06:16:36;20.54;85.73
65707;SHT31;52423;43.512;5.220;2022-10-22T06:19:02;20.51;85.64
65707;SHT31;52423;43.512;5.220;2022-10-22T06:21:28;20.46;85.77
65707;SHT31;52423;43.512;5.220;2022-10-22T06:23:58;20.47;85.76
65707;SHT31;52423;43.512;5.220;2022-10-22T06:26:24;20.51;85.65
65707;SHT31;52423;43.512;5.220;2022-10-22T06:28:49;20.54;85.43
65707;SHT31;52423;43.512;5.220;2022-10-22T06:31:14;20.57;85.26
65707;SHT31;52423;43.512;5.220;2022-10-22T06:33:40;20.57;85.13
65707;SHT31;52423;43.512;5.220;2022-10-22T06:36:13;20.55;85.22
65707;SHT31;52423;43.512;5.220;2022-10-22T06:38:39;20.47;85.55
65707;SHT31;52423;43.512;5.220;2022-10-22T06:41:10;20.44;85.42
65707;SHT31;52423;43.512;5.220;2022-10-22T06:43:36;20.43;85.48
65707;SHT31;52423;43.512;5.220;2022-10-22T06:46:04;20.44;85.34
65707;SHT31;52423;43.512;5.220;2022-10-22T06:48:30;20.44;85.29
65707;SHT31;52423;43.512;5.220;2022-10-22T06:50:55;20.46;85.33
65707;SHT31;52423;43.512;5.220;2022-10-22T06:53:21;20.47;85.28
65707;SHT31;52423;43.512;5.220;2022-10-22T06:55:47;20.50;85.19
65707;SHT31;52423;43.512;5.220;2022-10-22T06:58:12;20.51;85.12
65707;SHT31;52423;43.512;5.220;2022-10-22T07:00:37;20.46;85.19
65707;SHT31;52423;43.512;5.220;2022-10-22T07:03:03;20.33;85.50
65707;SHT31;52423;43.512;5.220;2022-10-22T07:05:28;20.34;85.47
65707;SHT31;52423;43.512;5.220;2022-10-22T07:07:53;20.37;85.24
65707;SHT31;52423;43.512;5.220;2022-10-22T07:10:19;20.36;85.16
65707;SHT31;52423;43.512;5.220;2022-10-22T07:12:44;20.32;84.91
65707;SHT31;52423;43.512;5.220;2022-10-22T07:15:10;20.30;84.68
65707;SHT31;52423;43.512;5.220;2022-10-22T07:17:35;20.41;84.68
65707;SHT31;52423;43.512;5.220;2022-10-22T07:20:01;20.37;84.37
65707;SHT31;52423;43.512;5.220;2022-10-22T07:22:26;20.34;84.32
65707;SHT31;52423;43.512;5.220;2022-10-22T07:24:52;20.32;84.10
65707;SHT31;52423;43.512;5.220;2022-10-22T07:27:17;20.40;84.46
65707;SHT31;52423;43.512;5.220;2022-10-22T07:29:42;20.44;84.06
65707;SHT31;52423;43.512;5.220;2022-10-22T07:32:08;20.40;83.72
65707;SHT31;52423;43.512;5.220;2022-10-22T07:34:33;20.41;83.61
65707;SHT31;52423;43.512;5.220;2022-10-22T07:36:58;20.44;83.44
65707;SHT31;52423;43.512;5.220;2022-10-22T07:39:24;20.53;82.90
65707;SHT31;52423;43.512;5.220;2022-10-22T07:41:50;20.51;82.15
65707;SHT31;52423;43.512;5.220;2022-10-22T07:44:15;20.55;82.16
65707;SHT31;52423;43.512;5.220;2022-10-22T07:46:41;20.61;82.04
65707;SHT31;52423;43.512;5.220;2022-10-22T07:49:06;20.65;81.96
65707;SHT31;52423;43.512;5.220;2022-10-22T07:51:31;20.70;81.50
65707;SHT31;52423;43.512;5.220;2022-10-22T07:53:57;20.74;81.73
65707;SHT31;52423;43.512;5.220;2022-10-22T07:56:22;20.81;81.27
65707;SHT31;52423;43.512;5.220;2022-10-22T07:58:47;20.88;80.60
65707;SHT31;52423;43.512;5.220;2022-10-22T08:01:13;20.90;80.51
65707;SHT31;52423;43.512;5.220;2022-10-22T08:03:38;20.94;78.93
65707;SHT31;52423;43.512;5.220;2022-10-22T08:06:04;20.92;79.21
65707;SHT31;52423;43.512;5.220;2022-10-22T08:08:29;20.92;79.41
65707;SHT31;52423;43.512;5.220;2022-10-22T08:10:56;20.95;79.46
65707;SHT31;52423;43.512;5.220;2022-10-22T08:13:23;21.01;78.74
65707;SHT31;52423;43.512;5.220;2022-10-22T08:15:48;21.01;79.17
65707;SHT31;52423;43.512;5.220;2022-10-22T08:18:14;21.05;78.25
65707;SHT31;52423;43.512;5.220;2022-10-22T08:20:39;21.02;78.65
65707;SHT31;52423;43.512;5.220;2022-10-22T08:23:05;20.99;78.58
65707;SHT31;52423;43.512;5.220;2022-10-22T08:25:31;21.08;78.70
65707;SHT31;52423;43.512;5.220;2022-10-22T08:27:56;21.11;78.67
65707;SHT31;52423;43.512;5.220;2022-10-22T08:30:22;21.12;78.37
65707;SHT31;52423;43.512;5.220;2022-10-22T08:32:47;21.24;77.62
65707;SHT31;52423;43.512;5.220;2022-10-22T08:35:13;21.22;78.06
65707;SHT31;52423;43.512;5.220;2022-10-22T08:37:38;21.29;77.44
65707;SHT31;52423;43.512;5.220;2022-10-22T08:40:04;21.31;77.77
65707;SHT31;52423;43.512;5.220;2022-10-22T08:42:49;21.32;77.91
65707;SHT31;52423;43.512;5.220;2022-10-22T08:45:23;21.32;77.92
65707;SHT31;52423;43.512;5.220;2022-10-22T08:47:56;21.43;77.28
65707;SHT31;52423;43.512;5.220;2022-10-22T08:53:03;21.60;76.81
65707;SHT31;52423;43.512;5.220;2022-10-22T08:55:29;21.66;76.93
65707;SHT31;52423;43.512;5.220;2022-10-22T08:58:10;21.73;76.28
65707;SHT31;52423;43.512;5.220;2022-10-22T09:01:40;21.82;76.03
65707;SHT31;52423;43.512;5.220;2022-10-22T09:03:52;21.84;76.40
65707;SHT31;52423;43.512;5.220;2022-10-22T09:06:23;21.94;76.06
65707;SHT31;52423;43.512;5.220;2022-10-22T09:08:50;21.83;75.82
65707;SHT31;52423;43.512;5.220;2022-10-22T09:11:27;21.92;75.64
65707;SHT31;52423;43.512;5.220;2022-10-22T09:13:55;21.83;75.56
65707;SHT31;52423;43.512;5.220;2022-10-22T09:19:07;21.87;75.53
65707;SHT31;52423;43.512;5.220;2022-10-22T09:22:32;21.87;75.52
65707;SHT31;52423;43.512;5.220;2022-10-22T09:24:38;22.00;75.17
65707;SHT31;52423;43.512;5.220;2022-10-22T09:27:11;21.94;75.30
65707;SHT31;52423;43.512;5.220;2022-10-22T09:29:36;21.97;74.89
65707;SHT31;52423;43.512;5.220;2022-10-22T09:32:02;21.90;75.24
65707;SHT31;52423;43.512;5.220;2022-10-22T09:34:28;21.90;75.72
65707;SHT31;52423;43.512;5.220;2022-10-22T09:36:58;21.94;75.65
65707;SHT31;52423;43.512;5.220;2022-10-22T09:39:31;21.89;75.51
65707;SHT31;52423;43.512;5.220;2022-10-22T09:41:57;21.93;74.71
65707;SHT31;52423;43.512;5.220;2022-10-22T09:44:22;21.84;75.36
65707;SHT31;52423;43.512;5.220;2022-10-22T09:46:48;21.86;75.26
65707;SHT31;52423;43.512;5.220;2022-10-22T09:49:18;21.82;75.20
65707;SHT31;52423;43.512;5.220;2022-10-22T09:54:24;21.76;75.19
65707;SHT31;52423;43.512;5.220;2022-10-22T09:57:35;21.70;75.78
65707;SHT31;52423;43.512;5.220;2022-10-22T09:59:43;21.69;75.77
65707;SHT31;52423;43.512;5.220;2022-10-22T10:04:50;21.66;75.35
65707;SHT31;52423;43.512;5.220;2022-10-22T10:07:25;21.69;74.63
65707;SHT31;52423;43.512;5.220;2022-10-22T10:09:51;21.67;74.99
65707;SHT31;52423;43.512;5.220;2022-10-22T10:17:47;21.79;74.88
65707;SHT31;52423;43.512;5.220;2022-10-22T10:23:40;21.82;75.14
65707;SHT31;52423;43.512;5.220;2022-10-22T10:31:32;21.90;74.91
65707;SHT31;52423;43.512;5.220;2022-10-22T10:34:22;21.92;74.92
65707;SHT31;52423;43.512;5.220;2022-10-22T10:37:19;21.96;74.90
65707;SHT31;52423;43.512;5.220;2022-10-22T10:43:24;21.98;74.84
65707;SHT31;52423;43.512;5.220;2022-10-22T10:49:00;22.05;74.46
65707;SHT31;52423;43.512;5.220;2022-10-22T10:52:39;22.13;74.48
65707;SHT31;52423;43.512;5.220;2022-10-22T10:55:21;22.18;73.97
65707;SHT31;52423;43.512;5.220;2022-10-22T10:58:13;22.25;73.73
65707;SHT31;52423;43.512;5.220;2022-10-22T11:00:49;22.30;73.64
65707;SHT31;52423;43.512;5.220;2022-10-22T11:05:59;22.35;73.05
65707;SHT31;52423;43.512;5.220;2022-10-22T11:08:29;22.42;73.25
65707;SHT31;52423;43.512;5.220;2022-10-22T11:10:59;22.45;72.85
65707;SHT31;52423;43.512;5.220;2022-10-22T11:16:42;22.68;72.57
65707;SHT31;52423;43.512;5.220;2022-10-22T11:24:42;22.72;70.84
65707;SHT31;52423;43.512;5.220;2022-10-22T11:27:37;22.69;70.98
65707;SHT31;52423;43.512;5.220;2022-10-22T11:30:11;22.65;71.00
65707;SHT31;52423;43.512;5.220;2022-10-22T11:32:38;22.71;71.14
65707;SHT31;52423;43.512;5.220;2022-10-22T11:35:07;22.75;70.65
65707;SHT31;52423;43.512;5.220;2022-10-22T11:37:36;22.77;70.84
65707;SHT31;52423;43.512;5.220;2022-10-22T11:40:31;22.79;71.21
65707;SHT31;52423;43.512;5.220;2022-10-22T11:43:05;22.77;71.34
65707;SHT31;52423;43.512;5.220;2022-10-22T11:45:39;22.77;71.12
65707;SHT31;52423;43.512;5.220;2022-10-22T11:55:48;23.22;72.20
65707;SHT31;52423;43.512;5.220;2022-10-22T12:00:55;23.17;71.22
65707;SHT31;52423;43.512;5.220;2022-10-22T12:06:20;23.22;70.14
65707;SHT31;52423;43.512;5.220;2022-10-22T12:14:18;23.82;66.24
65707;SHT31;52423;43.512;5.220;2022-10-22T12:19:38;24.43;64.48
65707;SHT31;52423;43.512;5.220;2022-10-22T12:22:13;24.67;64.16
65707;SHT31;52423;43.512;5.220;2022-10-22T12:24:41;24.73;63.66
65707;SHT31;52423;43.512;5.220;2022-10-22T12:27:19;24.94;62.63
65707;SHT31;52423;43.512;5.220;2022-10-22T12:29:45;25.10;60.93
65707;SHT31;52423;43.512;5.220;2022-10-22T12:32:13;25.20;57.51
65707;SHT31;52423;43.512;5.220;2022-10-22T12:34:50;25.35;58.78
65707;SHT31;52423;43.512;5.220;2022-10-22T12:37:17;25.41;59.86
65707;SHT31;52423;43.512;5.220;2022-10-22T12:39:45;25.51;59.95
65707;SHT31;52423;43.512;5.220;2022-10-22T12:42:15;25.61;59.37
65707;SHT31;52423;43.512;5.220;2022-10-22T12:44:44;25.52;58.86
65707;SHT31;52423;43.512;5.220;2022-10-22T12:47:17;25.59;59.42
65707;SHT31;52423;43.512;5.220;2022-10-22T12:49:48;25.62;59.54
65707;SHT31;52423;43.512;5.220;2022-10-22T12:52:19;25.76;59.95
65707;SHT31;52423;43.512;5.220;2022-10-22T12:54:46;25.75;58.76
65707;SHT31;52423;43.512;5.220;2022-10-22T12:57:15;25.83;55.92
65707;SHT31;52423;43.512;5.220;2022-10-22T12:59:44;25.96;57.12
65707;SHT31;52423;43.512;5.220;2022-10-22T13:02:28;26.02;57.36
65707;SHT31;52423;43.512;5.220;2022-10-22T13:05:29;26.03;56.27
65707;SHT31;52423;43.512;5.220;2022-10-22T13:08:20;26.09;56.51
65707;SHT31;52423;43.512;5.220;2022-10-22T13:10:51;25.99;59.26
65707;SHT31;52423;43.512;5.220;2022-10-22T13:13:39;25.96;59.90
65707;SHT31;52423;43.512;5.220;2022-10-22T13:16:21;25.96;59.19
65707;SHT31;52423;43.512;5.220;2022-10-22T13:18:52;26.07;57.80
65707;SHT31;52423;43.512;5.220;2022-10-22T13:21:33;26.12;58.25
65707;SHT31;52423;43.512;5.220;2022-10-22T13:24:01;26.06;56.73
65707;SHT31;52423;43.512;5.220;2022-10-22T13:26:33;26.04;57.29
65707;SHT31;52423;43.512;5.220;2022-10-22T13:28:59;26.07;56.44
65707;SHT31;52423;43.512;5.220;2022-10-22T13:31:28;26.06;54.62
65707;SHT31;52423;43.512;5.220;2022-10-22T13:34:01;26.13;54.41
65707;SHT31;52423;43.512;5.220;2022-10-22T13:36:28;26.10;55.78
65707;SHT31;52423;43.512;5.220;2022-10-22T13:38:53;26.09;54.42
65707;SHT31;52423;43.512;5.220;2022-10-22T13:41:24;26.06;53.11
65707;SHT31;52423;43.512;5.220;2022-10-22T13:43:50;26.10;54.00
65707;SHT31;52423;43.512;5.220;2022-10-22T13:46:16;26.09;53.17
65707;SHT31;52423;43.512;5.220;2022-10-22T13:48:43;25.99;53.35
65707;SHT31;52423;43.512;5.220;2022-10-22T13:51:14;26.02;52.61
65707;SHT31;52423;43.512;5.220;2022-10-22T13:53:40;26.04;51.46
65707;SHT31;52423;43.512;5.220;2022-10-22T13:56:07;25.93;52.77
65707;SHT31;52423;43.512;5.220;2022-10-22T13:58:34;26.02;53.95
65707;SHT31;52423;43.512;5.220;2022-10-22T14:01:01;26.07;54.50
65707;SHT31;52423;43.512;5.220;2022-10-22T14:03:31;26.14;53.64
65707;SHT31;52423;43.512;5.220;2022-10-22T14:05:57;26.14;53.38
65707;SHT31;52423;43.512;5.220;2022-10-22T14:08:23;26.07;52.27
65707;SHT31;52423;43.512;5.220;2022-10-22T14:10:50;26.00;50.91
65707;SHT31;52423;43.512;5.220;2022-10-22T14:13:17;25.93;50.53
65707;SHT31;52423;43.512;5.220;2022-10-22T14:15:44;25.95;51.45
65707;SHT31;52423;43.512;5.220;2022-10-22T14:18:18;25.83;52.16
65707;SHT31;52423;43.512;5.220;2022-10-22T14:20:51;25.81;50.65
65707;SHT31;52423;43.512;5.220;2022-10-22T14:23:23;25.78;51.44
65707;SHT31;52423;43.512;5.220;2022-10-22T14:25:49;25.71;52.47
65707;SHT31;52423;43.512;5.220;2022-10-22T14:28:18;25.69;52.77
65707;SHT31;52423;43.512;5.220;2022-10-22T14:30:44;25.79;50.27
65707;SHT31;52423;43.512;5.220;2022-10-22T14:33:19;25.72;48.48
65707;SHT31;52423;43.512;5.220;2022-10-22T14:35:49;25.79;48.37
65707;SHT31;52423;43.512;5.220;2022-10-22T14:38:16;25.81;48.54
65707;SHT31;52423;43.512;5.220;2022-10-22T14:40:43;25.62;49.25
65707;SHT31;52423;43.512;5.220;2022-10-22T14:43:29;25.66;50.40
65707;SHT31;52423;43.512;5.220;2022-10-22T14:45:55;25.57;51.87
65707;SHT31;52423;43.512;5.220;2022-10-22T14:48:21;25.68;51.79
65707;SHT31;52423;43.512;5.220;2022-10-22T14:50:47;25.83;51.99
65707;SHT31;52423;43.512;5.220;2022-10-22T14:53:13;25.82;51.69
65707;SHT31;52423;43.512;5.220;2022-10-22T14:55:41;25.76;51.55
65707;SHT31;52423;43.512;5.220;2022-10-22T14:58:09;25.72;48.07
65707;SHT31;52423;43.512;5.220;2022-10-22T15:00:34;25.68;47.61
65707;SHT31;52423;43.512;5.220;2022-10-22T15:03:01;25.63;48.73
65707;SHT31;52423;43.512;5.220;2022-10-22T15:05:27;25.57;48.69
65707;SHT31;52423;43.512;5.220;2022-10-22T15:07:52;25.54;47.33
65707;SHT31;52423;43.512;5.220;2022-10-22T15:10:17;25.44;47.59
65707;SHT31;52423;43.512;5.220;2022-10-22T15:12:43;25.41;48.87
65707;SHT31;52423;43.512;5.220;2022-10-22T15:15:08;25.32;49.16
65707;SHT31;52423;43.512;5.220;2022-10-22T15:17:34;25.34;49.43
65707;SHT31;52423;43.512;5.220;2022-10-22T15:19:59;25.44;49.22
65707;SHT31;52423;43.512;5.220;2022-10-22T15:22:29;25.37;49.87
65707;SHT31;52423;43.512;5.220;2022-10-22T15:24:56;25.27;50.46
65707;SHT31;52423;43.512;5.220;2022-10-22T15:27:21;25.21;51.10
65707;SHT31;52423;43.512;5.220;2022-10-22T15:29:47;25.10;50.59
65707;SHT31;52423;43.512;5.220;2022-10-22T15:32:12;25.08;51.02
65707;SHT31;52423;43.512;5.220;2022-10-22T15:34:39;25.07;51.18
65707;SHT31;52423;43.512;5.220;2022-10-22T15:37:08;25.01;51.39
65707;SHT31;52423;43.512;5.220;2022-10-22T15:39:34;24.97;52.10
65707;SHT31;52423;43.512;5.220;2022-10-22T15:42:02;24.91;51.95
65707;SHT31;52423;43.512;5.220;2022-10-22T15:44:29;24.86;52.64
65707;SHT31;52423;43.512;5.220;2022-10-22T15:46:56;24.76;51.61
65707;SHT31;52423;43.512;5.220;2022-10-22T15:49:23;24.67;52.20
65707;SHT31;52423;43.512;5.220;2022-10-22T15:51:49;24.67;52.73
65707;SHT31;52423;43.512;5.220;2022-10-22T15:54:19;24.55;53.63
65707;SHT31;52423;43.512;5.220;2022-10-22T15:56:45;24.49;54.03
65707;SHT31;52423;43.512;5.220;2022-10-22T15:59:11;24.32;51.86
65707;SHT31;52423;43.512;5.220;2022-10-22T16:01:37;24.23;52.41
65707;SHT31;52423;43.512;5.220;2022-10-22T16:04:03;24.12;53.52
65707;SHT31;52423;43.512;5.220;2022-10-22T16:06:34;24.08;54.72
65707;SHT31;52423;43.512;5.220;2022-10-22T16:09:02;23.91;55.99
65707;SHT31;52423;43.512;5.220;2022-10-22T16:11:28;23.82;57.88
65707;SHT31;52423;43.512;5.220;2022-10-22T16:13:58;23.75;59.68
65707;SHT31;52423;43.512;5.220;2022-10-22T16:16:26;23.71;60.40
65707;SHT31;52423;43.512;5.220;2022-10-22T16:18:51;23.64;61.87
65707;SHT31;52423;43.512;5.220;2022-10-22T16:21:18;23.54;62.41
65707;SHT31;52423;43.512;5.220;2022-10-22T16:23:43;23.43;63.20
65707;SHT31;52423;43.512;5.220;2022-10-22T16:26:09;23.40;63.44
65707;SHT31;52423;43.512;5.220;2022-10-22T16:28:38;23.39;63.65
65707;SHT31;52423;43.512;5.220;2022-10-22T16:31:07;23.33;64.78
65707;SHT31;52423;43.512;5.220;2022-10-22T16:33:34;23.28;65.33
65707;SHT31;52423;43.512;5.220;2022-10-22T16:35:59;23.23;66.01
65707;SHT31;52423;43.512;5.220;2022-10-22T16:38:25;23.19;66.56
65707;SHT31;52423;43.512;5.220;2022-10-22T16:40:51;23.13;67.62
65707;SHT31;52423;43.512;5.220;2022-10-22T16:43:17;23.12;67.37
65707;SHT31;52423;43.512;5.220;2022-10-22T16:45:49;23.05;67.79
65707;SHT31;52423;43.512;5.220;2022-10-22T16:48:17;23.02;68.12
65707;SHT31;52423;43.512;5.220;2022-10-22T16:50:43;23.02;68.30
65707;SHT31;52423;43.512;5.220;2022-10-22T16:53:08;22.92;68.69
65707;SHT31;52423;43.512;5.220;2022-10-22T16:55:38;22.91;69.28
65707;SHT31;52423;43.512;5.220;2022-10-22T16:58:04;22.91;69.76
65707;SHT31;52423;43.512;5.220;2022-10-22T17:00:30;22.91;69.96
65707;SHT31;52423;43.512;5.220;2022-10-22T17:02:55;22.91;69.74
65707;SHT31;52423;43.512;5.220;2022-10-22T17:05:21;22.91;69.81
65707;SHT31;52423;43.512;5.220;2022-10-22T17:07:47;22.88;69.74
65707;SHT31;52423;43.512;5.220;2022-10-22T17:10:13;22.83;69.77
65707;SHT31;52423;43.512;5.220;2022-10-22T17:12:38;22.79;70.06
65707;SHT31;52423;43.512;5.220;2022-10-22T17:15:05;22.79;70.05